Aquone, North Carolina
Current Conditions -  °F | °C
As of 2:15 PM on Tuesday 21 Oct 2014 (Local Time) from KRHP Reporting Station
Clear Clear  
Wind Chill: 20°   Ceiling: Unl
Heat Index: 20°   Visibility: 10mi
Dew Point:   Wind: 9mph
Humidity: 42%   Direction: 20°NNE
Pressure: 29.97"   Gusts: 18mph
Location:  35.2235°N, 83.6438°W
Report Text: KRHP 211815Z AUTO 02008G16KT 10SM CLR 20/06 A2997 RMK AO2 T01970063
Loading
Personal Weather Stations






























Interactive Weather Map
Tropical Storm Tracking
New forecast layout! Learn more

10-Day Weather Forecast

Advertisements
Track Severe Weather on mobile